Terminal Aerodrome Forecast
Issued by NWS Austin/San Antonio, TX

Home | Current Version | Previous Version | Text Only | Print | Product List | Glossary On
Versions: 1 2 3 4 5 6 7 8 9 10 11 12 13 14 15 16 17 18 19
011
FTUS44 KEWX 242320
TAFAUS
TAF
KAUS 242320Z 2500/2606 01012KT P6SM VCSH SCT040 OVC250
     FM250200 16010KT P6SM SCT100 BKN250
     FM251000 18009KT P6SM BKN020
     FM251700 17012KT P6SM SCT070=

USA.gov is the U.S. government's official web portal to all federal, state and local government web resources and services.